Wednesday, December 19, 2018, 12:33 AM EST
Back to Local

KOXC, Oxford, Waterbury-oxford Airport

Location: Oxford, CT, United States Lat: 41.483
Local Time: 12:33 AM EST ( 5:33 GMT) Lon: -73.133
Time Zone: US/Eastern Elev: 725 ft

Show me the last for .
Show Decoded

2018-12-18 23:51 METAR KOXC 190451Z AUTO 30008KT 10SM CLR M07/M11 A3007 RMK AO2 SLP208 T10671111
                 400171067 FZRANO =
2018-12-18 22:51 METAR KOXC 190351Z AUTO 30006KT 10SM CLR M07/M11 A3008 RMK AO2 SLP210 T10671111
                 FZRANO =
2018-12-18 21:51 METAR KOXC 190251Z AUTO 30006KT 10SM CLR M06/M11 A3008 RMK AO2 SLP209 T10611111
                 58002 FZRANO =
2018-12-18 20:51 METAR KOXC 190151Z 32007KT 10SM CLR M06/M11 A3009 RMK AO2 SLP215 T10561111 =
2018-12-18 19:51 METAR KOXC 190051Z 32003KT 10SM CLR M04/M11 A3009 RMK AO2 SLP214 T10441106 =
2018-12-18 18:51 METAR KOXC 182351Z VRB06KT 10SM CLR M04/M11 A3009 RMK AO2 SLP212 T10391106 11017
                 21039 51027 =
2018-12-18 17:51 METAR KOXC 182251Z 31006KT 10SM CLR M03/M11 A3007 RMK AO2 SLP205 T10331111 =
2018-12-18 16:51 METAR KOXC 182151Z 33011G18KT 10SM CLR M03/M12 A3005 RMK AO2 SLP198 T10281117 =
2018-12-18 15:51 METAR KOXC 182051Z 31012G19KT 270V340 10SM CLR M02/M11 A3000 RMK AO2 SLP182
                 T10221111 53017 =
2018-12-18 14:51 METAR KOXC 181951Z 33015G23KT 10SM CLR M02/M11 A2997 RMK AO2 SLP169 T10171106 =
2018-12-18 13:51 METAR KOXC 181851Z 33011G21KT 10SM CLR M02/M11 A2996 RMK AO2 SLP168 T10221111 =
2018-12-18 12:51 METAR KOXC 181751Z 31016G25KT 10SM CLR M03/M12 A2995 RMK AO2 SLP165 T10281117
                 11022 21061 53000 =
2018-12-18 11:51 METAR KOXC 181651Z 33017G22KT 10SM CLR M03/M12 A2994 RMK AO2 PK WND 34027/1635
                 SLP160 T10331117 =
2018-12-18 10:51 METAR KOXC 181551Z 33015G23KT 10SM FEW045 M04/M12 A2995 RMK AO2 PK WND
                 33026/1506 SLP163 T10391122 =
2018-12-18 09:51 METAR KOXC 181451Z 34017G28KT 10SM FEW035 M04/M13 A2995 RMK AO2 PK WND
                 33033/1439 SLP165 T10441128 53024 =
2018-12-18 08:51 METAR KOXC 181351Z 34020G38KT 10SM CLR M06/M13 A2992 RMK AO2 PK WND 34038/1346
                 SLP153 T10561128 =
2018-12-18 07:51 METAR KOXC 181251Z COR 32015G26KT 10SM FEW035 M06/M12 A2989 RMK AO2 PK WND
                 31035/1216 SLP141 T10611122 =
2018-12-18 06:51 METAR KOXC 181151Z 33018G25KT 10SM FEW035 M06/M13 A2988 RMK AO2 PK WND
                 33028/1053 SLP138 60000 T10611128 10000 21061 51036 =
2018-12-18 05:51 METAR KOXC 181051Z AUTO 33013G25KT 10SM OVC033 M05/M11 A2985 RMK AO2 PK WND
                 32027/0956 SLP129 T10501106 FZRANO =
2018-12-18 04:51 METAR KOXC 180951Z AUTO 32020G26KT 10SM BKN031 M05/M10 A2982 RMK AO2 PK WND
                 35027/0902 SLP118 T10501100 FZRANO =
2018-12-18 03:51 METAR KOXC 180851Z AUTO 34018G29KT 10SM CLR M04/M10 A2977 RMK AO2 PK WND
                 31032/0805 SLP102 60000 T10391100 53027 FZRANO =
2018-12-18 02:51 METAR KOXC 180751Z AUTO 31015G30KT 10SM CLR M02/M09 A2975 RMK AO2 PK WND
                 31030/0743 SLP092 T10221089 FZRANO =
2018-12-18 01:51 METAR KOXC 180651Z AUTO 32012G20KT 10SM BKN039 M01/M06 A2971 RMK AO2
                 UPB38E41SNE38 SLP079 P0000 T10061056 FZRANO =
2018-12-18 00:51 METAR KOXC 180551Z AUTO 32012G21KT 9SM -SN FEW026 BKN036 OVC049 00/M04 A2969 RMK
                 AO2 RAE16SNB16 SLP072 P0000 60000 T00001039 10028 20000 53007 FZRANO =

Support USWX by starting your Amazon purchase here.